createdAt,value
2023-02-19T00:01:45.076Z,10.30
2023-02-19T00:04:14.026Z,10.20
2023-02-19T00:06:41.456Z,10.10
2023-02-19T00:09:10.091Z,10.20
2023-02-19T00:11:37.885Z,10.20
2023-02-19T00:14:05.550Z,10.20
2023-02-19T00:16:33.910Z,10.30
2023-02-19T00:19:01.893Z,10.20
2023-02-19T00:21:29.434Z,10.20
2023-02-19T00:23:57.858Z,10.10
2023-02-19T00:26:25.412Z,10.10
2023-02-19T00:28:52.927Z,10.00
2023-02-19T00:31:27.631Z,10.00
2023-02-19T00:33:56.331Z,9.90
2023-02-19T00:36:23.834Z,9.90
2023-02-19T00:38:51.053Z,9.80
2023-02-19T00:41:21.550Z,9.80
2023-02-19T00:43:50.703Z,9.70
2023-02-19T00:46:18.900Z,9.70
2023-02-19T00:48:46.613Z,9.60
2023-02-19T00:51:13.896Z,9.60
2023-02-19T00:53:41.072Z,9.60
2023-02-19T00:56:08.297Z,9.60
2023-02-19T00:58:35.740Z,9.50
2023-02-19T01:01:03.062Z,9.50
2023-02-19T01:03:30.258Z,9.50
2023-02-19T01:05:57.411Z,9.50
2023-02-19T01:08:24.892Z,9.50
2023-02-19T01:10:52.024Z,9.50
2023-02-19T01:13:20.224Z,9.40
2023-02-19T01:15:47.333Z,9.40
2023-02-19T01:18:15.020Z,9.40
2023-02-19T01:20:43.016Z,9.40
2023-02-19T01:23:11.633Z,9.40
2023-02-19T01:25:39.558Z,9.30
2023-02-19T01:28:07.149Z,9.30
2023-02-19T01:30:37.978Z,9.30
2023-02-19T01:33:06.147Z,9.20
2023-02-19T01:35:33.564Z,9.20
2023-02-19T01:38:00.641Z,9.20
2023-02-19T01:40:28.209Z,9.20
2023-02-19T01:42:55.500Z,9.20
2023-02-19T01:45:32.304Z,9.10
2023-02-19T01:48:03.719Z,9.10
2023-02-19T01:50:33.948Z,9.20
2023-02-19T01:53:04.464Z,9.10
2023-02-19T01:55:32.676Z,9.10
2023-02-19T01:58:00.282Z,9.10
2023-02-19T02:00:27.902Z,9.00
2023-02-19T02:02:56.275Z,9.00
2023-02-19T02:05:26.160Z,9.00
2023-02-19T02:08:11.655Z,8.90
2023-02-19T02:10:38.849Z,8.90
2023-02-19T02:13:05.831Z,8.90
2023-02-19T02:15:49.822Z,8.90
2023-02-19T02:18:36.110Z,8.90
2023-02-19T02:21:21.959Z,8.80
2023-02-19T02:24:02.907Z,8.90
2023-02-19T02:26:30.070Z,8.90
2023-02-19T02:29:00.140Z,8.90
2023-02-19T02:31:48.026Z,8.90
2023-02-19T02:34:18.600Z,8.80
2023-02-19T02:36:47.415Z,8.80
2023-02-19T02:39:17.469Z,8.80
2023-02-19T02:41:45.879Z,8.80
2023-02-19T02:44:13.667Z,8.80
2023-02-19T02:46:42.497Z,8.70
2023-02-19T02:49:14.968Z,8.70
2023-02-19T02:51:45.150Z,8.60
2023-02-19T02:54:41.611Z,8.70
2023-02-19T02:57:15.060Z,8.70
2023-02-19T02:59:52.454Z,8.70
2023-02-19T03:02:24.977Z,8.70
2023-02-19T03:05:10.678Z,8.70
2023-02-19T03:07:39.650Z,8.60
2023-02-19T03:10:08.480Z,8.60
2023-02-19T03:12:54.781Z,8.50
2023-02-19T03:15:41.962Z,8.50
2023-02-19T03:18:28.134Z,8.40
2023-02-19T03:20:58.093Z,8.40
2023-02-19T03:23:47.816Z,8.30
2023-02-19T03:26:17.102Z,8.40
2023-02-19T03:29:10.068Z,8.30
2023-02-19T03:31:40.078Z,8.30
2023-02-19T03:34:10.280Z,8.30
2023-02-19T03:36:43.991Z,8.30
2023-02-19T03:39:14.071Z,8.30
2023-02-19T03:41:48.586Z,8.30
2023-02-19T03:44:25.852Z,8.30
2023-02-19T03:46:57.085Z,8.30
2023-02-19T03:49:30.280Z,8.30
2023-02-19T03:52:03.763Z,8.30
2023-02-19T03:54:34.741Z,8.20
2023-02-19T03:57:12.084Z,8.20
2023-02-19T03:59:39.203Z,8.30
2023-02-19T04:02:10.132Z,8.20
2023-02-19T04:04:39.868Z,8.20
2023-02-19T04:07:07.140Z,8.20
2023-02-19T04:09:38.796Z,8.10
2023-02-19T04:12:10.807Z,8.10
2023-02-19T04:14:38.094Z,8.10
2023-02-19T04:17:11.359Z,8.00
2023-02-19T04:19:39.581Z,8.00
2023-02-19T04:22:07.611Z,8.00
2023-02-19T04:24:37.427Z,8.00
2023-02-19T04:27:05.188Z,8.00
2023-02-19T04:29:32.303Z,8.00
2023-02-19T04:31:59.481Z,8.00
2023-02-19T04:34:26.557Z,7.90
2023-02-19T04:36:53.654Z,8.00
2023-02-19T04:39:20.697Z,8.00
2023-02-19T04:41:47.806Z,8.00
2023-02-19T04:44:14.938Z,7.90
2023-02-19T04:46:43.145Z,7.90
2023-02-19T04:49:10.482Z,7.90
2023-02-19T04:51:38.611Z,7.90
2023-02-19T04:54:05.874Z,8.00
2023-02-19T04:56:33.099Z,8.00
2023-02-19T04:59:00.222Z,8.00
2023-02-19T05:01:27.224Z,7.90
2023-02-19T05:03:54.503Z,7.90
2023-02-19T05:06:21.510Z,7.90
2023-02-19T05:08:48.885Z,7.80
2023-02-19T05:11:15.992Z,7.90
2023-02-19T05:13:43.168Z,7.80
2023-02-19T05:16:14.009Z,7.80
2023-02-19T05:18:41.573Z,7.70
2023-02-19T05:21:09.593Z,7.80
2023-02-19T05:23:36.818Z,7.80
2023-02-19T05:26:07.902Z,7.70
2023-02-19T05:28:35.147Z,7.70
2023-02-19T05:31:06.922Z,7.70
2023-02-19T05:33:34.580Z,7.60
2023-02-19T05:36:04.960Z,7.60
2023-02-19T05:38:32.052Z,7.60
2023-02-19T05:41:13.816Z,7.60
2023-02-19T05:43:41.606Z,7.50
2023-02-19T05:46:09.881Z,7.50
2023-02-19T05:48:37.120Z,7.60
2023-02-19T05:51:05.862Z,7.50
2023-02-19T05:53:33.412Z,7.50
2023-02-19T05:56:00.691Z,7.60
2023-02-19T05:58:28.244Z,7.60
2023-02-19T06:00:55.753Z,7.70
2023-02-19T06:03:23.180Z,7.80
2023-02-19T06:05:50.198Z,7.80
2023-02-19T06:08:17.239Z,7.80
2023-02-19T06:10:44.422Z,7.90
2023-02-19T06:13:11.462Z,7.90
2023-02-19T06:15:38.686Z,7.90
2023-02-19T06:18:05.898Z,8.00
2023-02-19T06:20:33.226Z,8.00
2023-02-19T06:23:00.304Z,8.10
2023-02-19T06:25:27.331Z,8.20
2023-02-19T06:27:54.434Z,8.20
2023-02-19T06:30:21.529Z,8.30
2023-02-19T06:32:51.265Z,8.30
2023-02-19T06:35:18.353Z,8.40
2023-02-19T06:37:46.764Z,8.50
2023-02-19T06:40:13.785Z,8.50
2023-02-19T06:42:40.851Z,8.60
2023-02-19T06:45:08.126Z,8.70
2023-02-19T06:47:35.240Z,8.80
2023-02-19T06:50:02.393Z,8.90
2023-02-19T06:52:29.356Z,9.00
2023-02-19T06:54:56.496Z,9.10
2023-02-19T06:57:23.579Z,9.20
2023-02-19T06:59:50.654Z,9.30
2023-02-19T07:02:17.630Z,9.40
2023-02-19T07:04:44.779Z,9.50
2023-02-19T07:07:12.316Z,9.60
2023-02-19T07:09:39.311Z,9.80
2023-02-19T07:12:06.427Z,9.90
2023-02-19T07:14:33.549Z,10.00
2023-02-19T07:17:00.718Z,10.10
2023-02-19T07:19:27.915Z,10.20
2023-02-19T07:21:54.949Z,10.30
2023-02-19T07:24:22.628Z,10.50
2023-02-19T07:26:49.730Z,10.60
2023-02-19T07:29:17.126Z,10.70
2023-02-19T07:31:44.587Z,10.80
2023-02-19T07:34:11.629Z,10.90
2023-02-19T07:36:38.692Z,11.10
2023-02-19T07:39:05.768Z,11.20
2023-02-19T07:41:32.909Z,11.30
2023-02-19T07:43:59.956Z,11.40
2023-02-19T07:46:27.531Z,11.50
2023-02-19T07:48:54.516Z,11.60
2023-02-19T07:51:22.177Z,11.70
2023-02-19T07:53:53.112Z,11.80
2023-02-19T07:56:21.226Z,11.80
2023-02-19T07:58:48.508Z,11.90
2023-02-19T08:01:15.585Z,12.00
2023-02-19T08:03:43.116Z,12.00
2023-02-19T08:06:11.401Z,12.00
2023-02-19T08:08:39.402Z,12.10
2023-02-19T08:11:25.054Z,12.20
2023-02-19T08:13:52.617Z,12.30
2023-02-19T08:16:29.577Z,12.30
2023-02-19T08:19:00.560Z,12.30
2023-02-19T08:21:27.608Z,12.40
2023-02-19T08:23:54.651Z,12.50
2023-02-19T08:26:21.824Z,12.60
2023-02-19T08:28:49.233Z,12.80
2023-02-19T08:31:16.578Z,12.90
2023-02-19T08:33:44.140Z,13.10
2023-02-19T08:36:11.385Z,13.20
2023-02-19T08:38:38.682Z,13.30
2023-02-19T08:41:07.268Z,13.30
2023-02-19T08:43:34.530Z,13.30
2023-02-19T08:46:01.766Z,13.20
2023-02-19T08:48:29.055Z,13.30
2023-02-19T08:51:00.379Z,13.30
2023-02-19T08:53:27.469Z,13.40
2023-02-19T08:55:54.639Z,13.50
2023-02-19T08:58:22.473Z,13.60
2023-02-19T09:00:49.532Z,13.60
2023-02-19T09:03:16.671Z,13.70
2023-02-19T09:05:43.722Z,13.80
2023-02-19T09:08:10.853Z,13.90
2023-02-19T09:10:37.956Z,13.90
2023-02-19T09:13:05.064Z,14.10
2023-02-19T09:15:33.518Z,14.20
2023-02-19T09:18:00.754Z,14.30
2023-02-19T09:20:27.804Z,14.30
2023-02-19T09:22:58.849Z,14.20
2023-02-19T09:25:26.302Z,14.30
2023-02-19T09:27:56.710Z,14.30
2023-02-19T09:30:24.320Z,14.50
2023-02-19T09:32:51.513Z,14.40
2023-02-19T09:35:18.736Z,14.20
2023-02-19T09:37:46.124Z,14.20
2023-02-19T09:40:13.462Z,14.30
2023-02-19T09:42:42.550Z,14.20
2023-02-19T09:45:14.116Z,14.30
2023-02-19T09:47:41.253Z,14.40
2023-02-19T09:50:09.871Z,14.60
2023-02-19T09:52:36.956Z,14.80
2023-02-19T09:55:09.790Z,14.90
2023-02-19T09:57:36.895Z,15.10
2023-02-19T10:00:24.470Z,15.30
2023-02-19T10:02:53.247Z,15.30
2023-02-19T10:05:21.516Z,15.40
2023-02-19T10:07:51.091Z,15.20
2023-02-19T10:10:24.466Z,15.10
2023-02-19T10:12:54.233Z,15.30
2023-02-19T10:15:27.419Z,15.40
2023-02-19T10:17:54.646Z,15.50
2023-02-19T10:20:24.826Z,15.70
2023-02-19T10:22:55.563Z,15.90
2023-02-19T10:25:22.670Z,15.80
2023-02-19T10:27:49.647Z,15.90
2023-02-19T10:30:24.202Z,16.00
2023-02-19T10:33:02.362Z,16.10
2023-02-19T10:35:30.318Z,16.20
2023-02-19T10:37:57.985Z,16.30
2023-02-19T10:40:26.253Z,16.30
2023-02-19T10:42:56.504Z,16.10
2023-02-19T10:45:25.521Z,15.90
2023-02-19T10:47:52.938Z,15.90
2023-02-19T10:50:28.075Z,16.00
2023-02-19T10:52:56.710Z,16.10
2023-02-19T10:55:23.672Z,16.20
2023-02-19T10:57:50.750Z,16.30
2023-02-19T11:00:30.365Z,16.20
2023-02-19T11:03:14.233Z,16.30
2023-02-19T11:05:50.486Z,16.40
2023-02-19T11:08:24.300Z,16.60
2023-02-19T11:10:51.622Z,16.50
2023-02-19T11:13:23.630Z,16.50
2023-02-19T11:15:52.764Z,16.70
2023-02-19T11:18:22.831Z,16.80
2023-02-19T11:20:54.483Z,17.10
2023-02-19T11:23:32.438Z,17.40
2023-02-19T11:26:01.550Z,17.60
2023-02-19T11:28:32.841Z,17.70
2023-02-19T11:31:19.343Z,17.40
2023-02-19T11:33:46.455Z,17.50
2023-02-19T11:36:17.285Z,17.90
2023-02-19T11:38:44.762Z,18.40
2023-02-19T11:41:27.124Z,18.20
2023-02-19T11:44:02.674Z,18.40
2023-02-19T11:46:48.622Z,18.50
2023-02-19T11:49:25.072Z,18.70
2023-02-19T11:52:17.925Z,18.70
2023-02-19T11:54:45.230Z,18.70
2023-02-19T11:57:14.986Z,18.90
2023-02-19T11:59:45.571Z,18.70
2023-02-19T12:02:24.779Z,18.70
2023-02-19T12:05:17.421Z,19.30
2023-02-19T12:08:03.178Z,19.90
2023-02-19T12:10:48.672Z,19.90
2023-02-19T12:13:33.651Z,20.40
2023-02-19T12:16:03.790Z,21.00
2023-02-19T12:18:31.820Z,21.00
2023-02-19T12:20:59.619Z,20.40
2023-02-19T12:23:45.326Z,19.70
2023-02-19T12:26:18.570Z,19.70
2023-02-19T12:28:49.114Z,20.30
2023-02-19T12:31:34.802Z,20.00
2023-02-19T12:34:08.167Z,19.20
2023-02-19T12:36:54.220Z,19.30
2023-02-19T12:39:39.998Z,19.80
2023-02-19T12:42:15.537Z,19.90
2023-02-19T12:44:45.495Z,19.80
2023-02-19T12:47:22.293Z,20.10
2023-02-19T12:49:56.399Z,19.50
2023-02-19T12:52:25.988Z,20.00
2023-02-19T12:54:55.912Z,19.60
2023-02-19T12:57:25.307Z,19.80
2023-02-19T12:59:56.188Z,19.80
2023-02-19T13:02:29.653Z,19.30
2023-02-19T13:05:02.203Z,19.40
2023-02-19T13:07:32.229Z,18.80
2023-02-19T13:10:20.775Z,19.10
2023-02-19T13:12:49.942Z,19.20
2023-02-19T13:15:19.635Z,19.00
2023-02-19T13:17:52.043Z,19.10
2023-02-19T13:20:19.145Z,19.30
2023-02-19T13:23:09.032Z,19.80
2023-02-19T13:25:45.285Z,19.50
2023-02-19T13:28:32.628Z,19.60
2023-02-19T13:30:59.767Z,19.50
2023-02-19T13:33:38.839Z,19.40
2023-02-19T13:36:13.552Z,18.50
2023-02-19T13:38:45.120Z,17.50
2023-02-19T13:41:20.191Z,17.00
2023-02-19T13:43:53.659Z,16.70
2023-02-19T13:46:20.854Z,16.50
2023-02-19T13:48:48.232Z,16.20
2023-02-19T13:51:24.069Z,16.00
2023-02-19T13:53:56.960Z,15.90
2023-02-19T13:56:30.162Z,15.80
2023-02-19T13:59:01.724Z,15.80
2023-02-19T14:01:47.649Z,15.70
2023-02-19T14:04:22.435Z,15.70
2023-02-19T14:07:04.663Z,15.60
2023-02-19T14:09:35.629Z,15.60
2023-02-19T14:12:02.677Z,15.50
2023-02-19T14:14:37.174Z,15.40
2023-02-19T14:17:08.250Z,15.40
2023-02-19T14:19:54.508Z,15.40
2023-02-19T14:22:40.158Z,15.50
2023-02-19T14:25:09.738Z,15.40
2023-02-19T14:27:37.771Z,15.40
2023-02-19T14:30:05.230Z,15.30
2023-02-19T14:32:32.568Z,15.40
2023-02-19T14:34:59.607Z,15.30
2023-02-19T14:37:26.759Z,15.30
2023-02-19T14:39:56.792Z,15.40
2023-02-19T14:42:32.603Z,15.30
2023-02-19T14:45:00.743Z,15.30
2023-02-19T14:47:28.756Z,15.30
2023-02-19T14:50:00.120Z,15.30
2023-02-19T14:52:32.183Z,15.30
2023-02-19T14:55:01.721Z,15.30
2023-02-19T14:57:30.051Z,15.20
2023-02-19T15:00:01.329Z,15.20
2023-02-19T15:02:29.600Z,15.10
2023-02-19T15:04:57.649Z,15.00
2023-02-19T15:07:30.098Z,15.00
2023-02-19T15:10:02.894Z,14.90
2023-02-19T15:12:39.100Z,14.80
2023-02-19T15:15:06.929Z,14.80
2023-02-19T15:17:36.308Z,14.80
2023-02-19T15:20:09.075Z,14.70
2023-02-19T15:22:36.193Z,14.70
2023-02-19T15:25:05.292Z,14.70
2023-02-19T15:27:34.387Z,14.60
2023-02-19T15:30:01.461Z,14.70
2023-02-19T15:32:28.666Z,14.70
2023-02-19T15:35:03.001Z,14.70
2023-02-19T15:37:31.768Z,14.70
2023-02-19T15:40:00.286Z,14.60
2023-02-19T15:42:27.282Z,14.60
2023-02-19T15:44:54.407Z,14.60
2023-02-19T15:47:29.621Z,14.50
2023-02-19T15:50:00.410Z,14.40
2023-02-19T15:52:31.987Z,14.30
2023-02-19T15:55:04.955Z,14.30
2023-02-19T15:57:35.892Z,14.20
2023-02-19T16:00:07.348Z,14.10
2023-02-19T16:02:39.810Z,14.10
2023-02-19T16:05:23.407Z,14.10
2023-02-19T16:08:06.968Z,14.10
2023-02-19T16:10:34.167Z,14.10
2023-02-19T16:13:02.482Z,14.00
2023-02-19T16:15:30.573Z,14.00
2023-02-19T16:17:58.461Z,14.00
2023-02-19T16:20:33.102Z,13.90
2023-02-19T16:23:04.179Z,13.90
2023-02-19T16:25:31.332Z,13.80
2023-02-19T16:27:58.657Z,13.70
2023-02-19T16:30:30.492Z,13.70
2023-02-19T16:33:16.227Z,13.70
2023-02-19T16:35:45.162Z,13.60
2023-02-19T16:38:19.798Z,13.60
2023-02-19T16:40:46.844Z,13.50
2023-02-19T16:43:13.950Z,13.50
2023-02-19T16:45:45.220Z,13.50
2023-02-19T16:48:12.872Z,13.40
2023-02-19T16:50:43.590Z,13.40
2023-02-19T16:53:21.252Z,13.40
2023-02-19T16:55:49.248Z,13.30
2023-02-19T16:58:16.343Z,13.30
2023-02-19T17:00:43.388Z,13.20
2023-02-19T17:03:11.603Z,13.20
2023-02-19T17:05:39.366Z,13.20
2023-02-19T17:08:18.731Z,13.10
2023-02-19T17:10:45.906Z,13.10
2023-02-19T17:13:13.000Z,13.10
2023-02-19T17:15:40.139Z,13.00
2023-02-19T17:18:08.731Z,13.00
2023-02-19T17:20:36.151Z,13.00
2023-02-19T17:23:03.169Z,13.00
2023-02-19T17:25:30.346Z,13.00
2023-02-19T17:27:57.462Z,12.90
2023-02-19T17:30:29.229Z,12.90
2023-02-19T17:32:56.447Z,12.90
2023-02-19T17:35:23.963Z,12.80
2023-02-19T17:37:53.315Z,12.80
2023-02-19T17:40:33.121Z,12.80
2023-02-19T17:43:01.176Z,12.80
2023-02-19T17:45:28.291Z,12.70
2023-02-19T17:47:55.463Z,12.70
2023-02-19T17:50:24.050Z,12.70
2023-02-19T17:52:51.210Z,12.70
2023-02-19T17:55:18.596Z,12.70
2023-02-19T17:57:46.257Z,12.70
2023-02-19T18:00:16.689Z,12.70
2023-02-19T18:02:43.773Z,12.70
2023-02-19T18:05:10.816Z,12.60
2023-02-19T18:07:38.686Z,12.50
2023-02-19T18:10:06.448Z,12.50
2023-02-19T18:12:33.566Z,12.50
2023-02-19T18:15:00.748Z,12.40
2023-02-19T18:17:27.881Z,12.40
2023-02-19T18:19:54.969Z,12.40
2023-02-19T18:22:22.143Z,12.40
2023-02-19T18:24:50.305Z,12.40
2023-02-19T18:27:18.974Z,12.40
2023-02-19T18:29:49.639Z,12.40
2023-02-19T18:32:16.714Z,12.30
2023-02-19T18:34:43.772Z,12.40
2023-02-19T18:37:11.032Z,12.40
2023-02-19T18:39:38.039Z,12.40
2023-02-19T18:42:05.243Z,12.40
2023-02-19T18:44:32.366Z,12.30
2023-02-19T18:46:59.431Z,12.30
2023-02-19T18:49:26.620Z,12.30
2023-02-19T18:51:53.718Z,12.30
2023-02-19T18:54:24.263Z,12.30
2023-02-19T18:56:51.507Z,12.30
2023-02-19T18:59:18.518Z,12.30
2023-02-19T19:01:45.648Z,12.30
2023-02-19T19:04:12.807Z,12.20
2023-02-19T19:06:39.923Z,12.30
2023-02-19T19:09:07.084Z,12.20
2023-02-19T19:11:34.668Z,12.20
2023-02-19T19:14:01.822Z,12.20
2023-02-19T19:16:29.288Z,12.20
2023-02-19T19:18:56.992Z,12.10
2023-02-19T19:21:24.268Z,12.10
2023-02-19T19:23:51.539Z,12.10
2023-02-19T19:26:18.698Z,12.00
2023-02-19T19:28:46.608Z,12.00
2023-02-19T19:31:15.544Z,11.90
2023-02-19T19:33:43.302Z,11.90
2023-02-19T19:36:11.580Z,11.90
2023-02-19T19:38:39.050Z,11.80
2023-02-19T19:41:06.323Z,11.80
2023-02-19T19:43:34.026Z,11.80
2023-02-19T19:46:03.342Z,11.80
2023-02-19T19:48:30.480Z,11.80
2023-02-19T19:50:57.676Z,11.80
2023-02-19T19:53:24.713Z,11.80
2023-02-19T19:55:51.771Z,11.80
2023-02-19T19:58:22.856Z,11.80
2023-02-19T20:00:50.240Z,11.80
2023-02-19T20:03:17.844Z,11.70
2023-02-19T20:05:46.180Z,11.70
2023-02-19T20:08:13.440Z,11.60
2023-02-19T20:10:40.506Z,11.60
2023-02-19T20:13:07.950Z,11.50
2023-02-19T20:15:35.325Z,11.50
2023-02-19T20:18:02.590Z,11.50
2023-02-19T20:20:29.904Z,11.50
2023-02-19T20:22:57.001Z,11.40
2023-02-19T20:25:24.523Z,11.40
2023-02-19T20:27:53.171Z,11.40
2023-02-19T20:30:21.259Z,11.40
2023-02-19T20:32:48.424Z,11.40
2023-02-19T20:35:16.269Z,11.40
2023-02-19T20:37:47.887Z,11.40
2023-02-19T20:40:17.746Z,11.40
2023-02-19T20:42:45.012Z,11.30
2023-02-19T20:45:12.345Z,11.30
2023-02-19T20:47:39.844Z,11.20
2023-02-19T20:50:07.600Z,11.20
2023-02-19T20:52:34.648Z,11.20
2023-02-19T20:55:01.807Z,11.10
2023-02-19T20:57:28.921Z,11.10
2023-02-19T20:59:56.538Z,11.10
2023-02-19T21:02:27.975Z,11.10
2023-02-19T21:04:56.672Z,11.10
2023-02-19T21:07:24.547Z,11.10
2023-02-19T21:09:52.348Z,11.00
2023-02-19T21:12:20.406Z,11.00
2023-02-19T21:14:47.453Z,11.00
2023-02-19T21:17:14.825Z,11.00
2023-02-19T21:19:42.094Z,11.00
2023-02-19T21:22:09.219Z,11.00
2023-02-19T21:24:36.276Z,11.00
2023-02-19T21:27:03.496Z,11.00
2023-02-19T21:29:30.547Z,11.00
2023-02-19T21:31:58.282Z,11.00
2023-02-19T21:34:26.580Z,11.00
2023-02-19T21:36:54.286Z,10.90
2023-02-19T21:39:23.272Z,10.90
2023-02-19T21:41:50.588Z,10.90
2023-02-19T21:44:18.395Z,10.80
2023-02-19T21:46:45.429Z,10.80
2023-02-19T21:49:12.982Z,10.80
2023-02-19T21:51:41.377Z,10.80
2023-02-19T21:54:09.017Z,10.80
2023-02-19T21:56:38.188Z,10.80
2023-02-19T21:59:05.275Z,10.70
2023-02-19T22:01:35.148Z,10.70
2023-02-19T22:04:02.260Z,10.70
2023-02-19T22:06:30.658Z,10.70
2023-02-19T22:08:58.035Z,10.70
2023-02-19T22:11:25.158Z,10.70
2023-02-19T22:13:52.343Z,10.70
2023-02-19T22:16:19.474Z,10.70
2023-02-19T22:18:57.221Z,10.70
2023-02-19T22:21:25.625Z,10.70
2023-02-19T22:23:53.790Z,10.70
2023-02-19T22:26:25.303Z,10.60
2023-02-19T22:28:52.831Z,10.60
2023-02-19T22:31:21.316Z,10.60
2023-02-19T22:33:48.513Z,10.60
2023-02-19T22:36:20.407Z,10.50
2023-02-19T22:38:47.821Z,10.50
2023-02-19T22:41:15.328Z,10.50
2023-02-19T22:43:43.287Z,10.50
2023-02-19T22:46:12.788Z,10.50
2023-02-19T22:48:40.229Z,10.40
2023-02-19T22:51:13.455Z,10.40
2023-02-19T22:53:47.540Z,10.40
2023-02-19T22:56:15.415Z,10.40
2023-02-19T22:58:42.556Z,10.30
2023-02-19T23:01:13.091Z,10.30
2023-02-19T23:03:47.192Z,10.40
2023-02-19T23:06:14.936Z,10.40
2023-02-19T23:08:43.032Z,10.40
2023-02-19T23:11:11.268Z,10.40
2023-02-19T23:13:38.262Z,10.50
2023-02-19T23:16:06.243Z,10.50
2023-02-19T23:18:33.308Z,10.40
2023-02-19T23:21:00.512Z,10.40
2023-02-19T23:23:27.527Z,10.30
2023-02-19T23:25:54.571Z,10.20
2023-02-19T23:28:21.703Z,10.20
2023-02-19T23:30:48.887Z,10.20
2023-02-19T23:33:16.151Z,10.10
2023-02-19T23:35:43.484Z,10.10
2023-02-19T23:38:10.612Z,10.10
2023-02-19T23:40:37.657Z,10.10
2023-02-19T23:43:04.802Z,10.10
2023-02-19T23:45:31.890Z,10.10
2023-02-19T23:47:58.995Z,10.20
2023-02-19T23:50:26.177Z,10.20
2023-02-19T23:52:53.369Z,10.10
2023-02-19T23:55:20.435Z,10.10
2023-02-19T23:57:47.538Z,10.10
